Time;durP1;ratioP1;P1;durP2;ratioP2;P2;SDS_P1;SDS_P2;PMS_P1;PMS_P2;Temp;Humidity;BMP_temperature;BMP_pressure;BME280_temperature;BME280_humidity;BME280_pressure;Samples;Min_cycle;Max_cycle;Signal;HPM_P1;HPM_P2
2021/03/26 00:01:11;;;;;;;17.67;4.88;;;7.60;99.90;;;;;;5054813;28;20025;-74
2021/03/26 00:03:43;;;;;;;14.15;4.85;;;7.60;99.90;;;;;;5069971;28;20043;-73
2021/03/26 00:06:25;;;;;;;13.82;4.80;;;7.60;99.90;;;;;;5066098;28;20016;-77
2021/03/26 00:08:51;;;;;;;15.90;5.40;;;7.60;99.90;;;;;;5069624;28;20055;-72
2021/03/26 00:11:18;;;;;;;14.68;5.45;;;7.60;99.90;;;;;;5067078;28;20025;-75
2021/03/26 00:13:44;;;;;;;15.10;6.20;;;7.50;99.90;;;;;;5069679;28;20023;-73
2021/03/26 00:16:10;;;;;;;16.60;5.53;;;7.50;99.90;;;;;;5067127;28;20021;-75
2021/03/26 00:18:37;;;;;;;18.13;5.85;;;7.60;99.90;;;;;;5068628;28;20025;-75
2021/03/26 00:21:04;;;;;;;12.88;5.35;;;7.50;99.90;;;;;;5069664;28;20594;-74
2021/03/26 00:23:30;;;;;;;18.83;5.88;;;7.40;99.90;;;;;;5068873;28;20049;-73
2021/03/26 00:25:56;;;;;;;16.58;5.65;;;7.30;99.90;;;;;;5068485;28;20071;-74
2021/03/26 00:28:21;;;;;;;21.05;7.43;;;7.30;99.90;;;;;;5066953;28;20037;-73
2021/03/26 00:30:47;;;;;;;25.13;6.35;;;7.30;99.90;;;;;;5068459;28;20061;-73
2021/03/26 00:33:12;;;;;;;22.98;7.43;;;7.20;99.90;;;;;;5068847;28;20052;-74
2021/03/26 00:35:38;;;;;;;12.77;6.28;;;7.10;99.90;;;;;;5065258;28;20419;-74
2021/03/26 00:38:04;;;;;;;24.55;6.85;;;7.10;99.90;;;;;;5059149;28;20060;-75
2021/03/26 00:40:31;;;;;;;17.00;6.70;;;7.10;99.90;;;;;;5050211;28;21743;-76
2021/03/26 00:42:56;;;;;;;14.23;6.75;;;7.00;99.90;;;;;;5060475;28;20624;-74
2021/03/26 00:45:26;;;;;;;15.40;6.70;;;7.00;99.90;;;;;;5061951;28;20055;-72
2021/03/26 00:47:52;;;;;;;13.90;6.78;;;7.00;99.90;;;;;;5069014;28;20032;-72
2021/03/26 00:50:40;;;;;;;17.95;8.07;;;7.00;99.90;;;;;;5068174;28;20160;-71
2021/03/26 00:53:21;;;;;;;14.48;6.93;;;6.90;99.90;;;;;;5068474;28;20036;-74
2021/03/26 00:55:46;;;;;;;11.75;7.07;;;6.90;99.90;;;;;;5066043;28;20123;-74
2021/03/26 00:58:13;;;;;;;24.17;8.10;;;6.90;99.90;;;;;;5067948;28;20107;-73
2021/03/26 01:00:39;;;;;;;14.75;5.80;;;7.00;99.90;;;;;;5068232;28;20024;-76
2021/03/26 01:03:07;;;;;;;16.55;6.72;;;7.00;99.90;;;;;;5067642;28;20032;-74
2021/03/26 01:05:36;;;;;;;17.60;7.30;;;6.90;99.90;;;;;;5066665;28;20039;-76
2021/03/26 01:08:03;;;;;;;14.35;6.70;;;6.90;99.90;;;;;;5067369;28;20028;-73
2021/03/26 01:10:36;;;;;;;21.52;7.75;;;6.90;99.90;;;;;;5068758;28;20032;-73
2021/03/26 01:13:03;;;;;;;22.38;7.60;;;6.90;99.90;;;;;;5066229;28;20368;-73
2021/03/26 01:15:30;;;;;;;15.77;7.10;;;6.90;99.90;;;;;;5067392;28;20028;-74
2021/03/26 01:17:58;;;;;;;15.30;7.25;;;6.90;99.90;;;;;;5067357;28;20063;-73
2021/03/26 01:20:27;;;;;;;18.80;7.25;;;6.90;99.90;;;;;;5067643;28;20081;-74
2021/03/26 01:22:52;;;;;;;16.13;7.18;;;6.80;99.90;;;;;;5068072;28;20032;-73
2021/03/26 01:25:30;;;;;;;16.52;6.68;;;6.70;99.90;;;;;;5067855;28;20077;-73
2021/03/26 01:27:56;;;;;;;21.58;8.25;;;6.80;99.90;;;;;;5066018;28;20655;-73
2021/03/26 01:30:23;;;;;;;13.77;6.55;;;6.80;99.90;;;;;;5066437;28;20095;-74
2021/03/26 01:32:50;;;;;;;13.85;6.53;;;6.90;99.90;;;;;;5067043;28;20070;-76
2021/03/26 01:35:16;;;;;;;15.50;7.22;;;6.90;99.90;;;;;;5067004;28;20656;-73
2021/03/26 01:37:42;;;;;;;12.35;6.90;;;6.90;99.90;;;;;;5066277;28;20115;-73
2021/03/26 01:40:10;;;;;;;17.85;7.03;;;7.00;99.90;;;;;;5067922;28;20529;-74
2021/03/26 01:42:38;;;;;;;13.95;6.90;;;7.10;99.90;;;;;;5052639;28;20234;-74
2021/03/26 01:45:15;;;;;;;16.00;7.03;;;7.10;99.90;;;;;;5059458;28;20025;-73
2021/03/26 01:47:42;;;;;;;25.33;6.90;;;7.20;99.90;;;;;;5068041;28;20556;-77
2021/03/26 01:50:10;;;;;;;16.80;7.13;;;7.20;99.90;;;;;;5067128;28;20063;-75
2021/03/26 01:52:35;;;;;;;20.42;7.07;;;7.20;99.90;;;;;;5066446;28;20039;-74
2021/03/26 01:55:01;;;;;;;16.20;7.20;;;7.20;99.90;;;;;;5068159;28;20025;-75
2021/03/26 01:57:27;;;;;;;12.32;7.30;;;7.20;99.90;;;;;;5067629;28;20056;-75
2021/03/26 01:59:54;;;;;;;17.33;7.38;;;7.20;99.90;;;;;;5068190;28;20048;-74
2021/03/26 02:02:23;;;;;;;17.92;8.35;;;7.20;99.90;;;;;;5066982;28;20078;-73
2021/03/26 02:04:51;;;;;;;20.05;8.23;;;7.30;99.90;;;;;;5067670;28;20039;-74
2021/03/26 02:07:19;;;;;;;22.55;10.38;;;7.30;99.90;;;;;;5067538;28;20028;-74
2021/03/26 02:09:46;;;;;;;25.42;12.02;;;7.30;99.90;;;;;;5066500;28;20100;-74
2021/03/26 02:12:23;;;;;;;26.08;12.80;;;7.40;99.90;;;;;;5067494;28;20016;-74
2021/03/26 02:14:51;;;;;;;29.77;13.15;;;7.40;99.90;;;;;;5069044;28;20032;-75
2021/03/26 02:17:21;;;;;;;30.60;14.93;;;7.40;99.90;;;;;;5067831;28;20032;-75
2021/03/26 02:20:21;;;;;;;29.90;15.73;;;7.50;99.90;;;;;;5070439;28;20025;-74
2021/03/26 02:22:47;;;;;;;32.03;17.20;;;7.60;99.90;;;;;;5060374;28;20032;-73
2021/03/26 02:25:18;;;;;;;30.95;16.80;;;7.60;99.90;;;;;;5068983;28;20157;-73
2021/03/26 02:27:44;;;;;;;39.08;18.52;;;7.70;99.90;;;;;;5067201;28;20214;-74
2021/03/26 02:30:17;;;;;;;33.45;17.95;;;7.70;99.90;;;;;;5065592;28;20048;-74
2021/03/26 02:32:43;;;;;;;;;;;7.70;99.90;;;;;;5054343;28;20048;-73
2021/03/26 02:35:39;;;;;;;36.42;19.17;;;7.70;99.90;;;;;;5068032;28;20453;-75
2021/03/26 02:38:15;;;;;;;43.13;21.00;;;7.80;99.90;;;;;;5066087;28;20028;-74
2021/03/26 02:40:59;;;;;;;35.75;20.65;;;7.80;99.90;;;;;;5066069;28;20518;-72
2021/03/26 02:43:49;;;;;;;39.90;22.67;;;7.80;99.90;;;;;;5061846;28;20054;-74
2021/03/26 02:46:26;;;;;;;47.22;21.23;;;7.80;99.90;;;;;;5063883;28;20027;-75
2021/03/26 02:49:06;;;;;;;45.97;23.10;;;7.90;99.90;;;;;;5064099;28;20016;-75
2021/03/26 02:51:42;;;;;;;41.85;21.63;;;7.80;99.90;;;;;;5066035;28;20030;-73
2021/03/26 02:54:11;;;;;;;45.95;23.33;;;7.90;99.90;;;;;;5053417;28;20032;-74
2021/03/26 02:56:42;;;;;;;38.95;21.42;;;7.90;99.90;;;;;;5067301;28;20085;-74
2021/03/26 02:59:13;;;;;;;47.67;23.02;;;7.90;99.90;;;;;;5067164;28;20438;-75
2021/03/26 03:01:49;;;;;;;42.00;22.65;;;7.90;99.90;;;;;;5065742;28;20398;-73
2021/03/26 03:04:22;;;;;;;39.90;22.92;;;8.00;99.90;;;;;;5067393;28;20388;-75
2021/03/26 03:06:53;;;;;;;45.20;23.30;;;8.00;99.90;;;;;;5067192;28;20472;-74
2021/03/26 03:09:22;;;;;;;43.40;23.60;;;8.00;99.90;;;;;;5067014;28;20036;-75
2021/03/26 03:12:02;;;;;;;45.53;24.42;;;8.00;99.90;;;;;;5065809;28;20036;-75
2021/03/26 03:14:41;;;;;;;43.40;23.00;;;8.00;99.90;;;;;;5065437;28;20024;-74
2021/03/26 03:17:20;;;;;;;43.50;23.52;;;8.00;99.90;;;;;;5064013;28;20024;-75
2021/03/26 03:20:08;;;;;;;43.20;24.52;;;8.00;99.90;;;;;;5065247;28;20656;-74
2021/03/26 03:22:52;;;;;;;44.70;23.70;;;8.10;99.90;;;;;;5056143;28;20113;-74
2021/03/26 03:25:22;;;;;;;46.78;23.27;;;8.00;99.90;;;;;;5062502;28;20028;-75
2021/03/26 03:28:26;;;;;;;45.97;24.83;;;8.00;99.90;;;;;;5066507;28;20047;-74
2021/03/26 03:31:10;;;;;;;43.83;24.13;;;8.10;99.90;;;;;;5047457;28;20101;-74
2021/03/26 03:33:48;;;;;;;49.28;25.20;;;8.10;99.90;;;;;;5051792;28;20025;-75
2021/03/26 03:36:20;;;;;;;51.75;25.42;;;8.10;99.90;;;;;;5065170;28;20683;-77
2021/03/26 03:39:00;;;;;;;43.17;23.20;;;8.10;99.90;;;;;;5065148;28;20048;-75
2021/03/26 03:41:55;;;;;;;45.08;23.83;;;8.10;99.90;;;;;;5062497;28;20434;-75
2021/03/26 03:44:38;;;;;;;48.33;24.95;;;8.10;99.90;;;;;;5056826;28;20040;-74
2021/03/26 03:47:29;;;;;;;43.25;24.73;;;8.00;99.90;;;;;;5065749;28;20361;-75
2021/03/26 03:50:06;;;;;;;47.22;25.42;;;8.10;99.90;;;;;;5059516;28;20036;-76
2021/03/26 03:52:42;;;;;;;45.00;23.98;;;8.00;99.90;;;;;;5065969;28;20071;-75
2021/03/26 03:55:23;;;;;;;47.28;24.85;;;8.00;99.90;;;;;;5068155;28;20425;-74
2021/03/26 03:58:02;;;;;;;42.50;24.70;;;8.00;99.90;;;;;;5069121;28;20033;-74
2021/03/26 04:00:33;;;;;;;47.88;26.13;;;8.00;99.90;;;;;;5065022;28;20076;-74
2021/03/26 04:03:09;;;;;;;51.47;25.17;;;7.90;99.90;;;;;;5065393;28;20485;-74
2021/03/26 04:05:49;;;;;;;48.28;24.27;;;7.90;99.90;;;;;;5060555;28;20530;-75
2021/03/26 04:08:20;;;;;;;49.83;25.00;;;7.80;99.90;;;;;;5065598;28;20013;-75
2021/03/26 04:10:52;;;;;;;45.22;25.02;;;7.80;99.90;;;;;;5068205;28;20025;-76
2021/03/26 04:13:28;;;;;;;52.27;24.57;;;7.80;99.90;;;;;;5067789;28;20032;-73
2021/03/26 04:16:03;;;;;;;50.10;24.48;;;7.70;99.90;;;;;;5067110;28;20037;-75
2021/03/26 04:18:34;;;;;;;54.25;26.20;;;7.80;99.90;;;;;;5067381;28;20070;-76
2021/03/26 04:21:28;;;;;;;48.92;26.45;;;7.70;99.90;;;;;;5067801;28;20056;-73
2021/03/26 04:24:22;;;;;;;47.83;24.10;;;7.70;99.90;;;;;;5066022;28;20438;-76
2021/03/26 04:27:32;;;;;;;48.90;24.33;;;7.80;99.90;;;;;;5063057;28;20115;-75
2021/03/26 04:30:07;;;;;;;42.70;23.52;;;7.90;99.90;;;;;;5054075;28;20085;-75
2021/03/26 04:32:32;;;;;;;49.80;23.88;;;7.80;99.90;;;;;;5064511;28;20024;-73
2021/03/26 04:34:58;;;;;;;46.88;24.42;;;7.70;99.90;;;;;;5068085;28;20135;-75
2021/03/26 04:37:58;;;;;;;49.58;25.83;;;7.70;99.90;;;;;;5065729;28;20463;-73
2021/03/26 04:40:31;;;;;;;42.35;22.73;;;7.80;99.90;;;;;;5064899;28;20041;-75
2021/03/26 04:43:15;;;;;;;48.17;24.05;;;7.80;99.90;;;;;;5064163;28;20117;-75
2021/03/26 04:46:30;;;;;;;42.63;23.13;;;7.90;99.90;;;;;;5067734;28;20103;-75
2021/03/26 04:49:18;;;;;;;41.25;21.00;;;7.90;99.90;;;;;;5022771;28;20449;-75
2021/03/26 04:52:20;;;;;;;47.28;22.27;;;8.00;99.90;;;;;;5066396;28;20114;-76
2021/03/26 04:54:56;;;;;;;43.60;22.83;;;8.00;99.90;;;;;;5064225;28;20024;-74
2021/03/26 04:57:55;;;;;;;44.85;21.88;;;8.00;99.90;;;;;;5068520;28;20134;-76
2021/03/26 05:00:30;;;;;;;45.70;22.23;;;8.00;99.90;;;;;;5065285;28;20496;-74
2021/03/26 05:03:27;;;;;;;43.17;22.60;;;8.00;99.90;;;;;;5082156;28;20054;-77
2021/03/26 05:05:57;;;;;;;43.63;22.23;;;8.10;99.90;;;;;;5092686;28;20013;-76
2021/03/26 05:08:33;;;;;;;39.42;22.20;;;8.10;99.90;;;;;;5095537;28;20016;-76
2021/03/26 05:11:35;;;;;;;33.10;19.33;;;8.10;99.90;;;;;;5095320;28;20019;-75
2021/03/26 05:14:20;;;;;;;40.85;20.30;;;8.20;99.90;;;;;;5096315;28;20021;-74
2021/03/26 05:17:04;;;;;;;41.83;20.23;;;8.10;99.90;;;;;;5095218;28;20000;-76
2021/03/26 05:20:01;;;;;;;41.10;19.98;;;8.10;99.90;;;;;;5097853;28;20027;-74
2021/03/26 05:22:51;;;;;;;40.40;19.65;;;8.20;99.90;;;;;;5096894;28;20025;-75
2021/03/26 05:25:36;;;;;;;39.72;20.73;;;8.20;99.90;;;;;;5096964;28;20005;-75
2021/03/26 05:28:19;;;;;;;42.00;20.48;;;8.20;99.90;;;;;;5091313;28;20031;-73
2021/03/26 05:30:57;;;;;;;41.60;21.05;;;8.10;99.90;;;;;;5071592;28;20482;-75
2021/03/26 05:34:06;;;;;;;37.35;19.95;;;8.10;99.90;;;;;;5073856;28;20063;-73
2021/03/26 05:37:14;;;;;;;41.00;20.77;;;8.20;99.90;;;;;;5072040;28;20030;-73
2021/03/26 05:39:40;;;;;;;38.25;18.77;;;8.10;99.90;;;;;;5071586;28;20024;-73
2021/03/26 05:42:28;;;;;;;35.30;19.98;;;8.20;99.90;;;;;;5068712;28;20028;-72
2021/03/26 05:45:00;;;;;;;39.60;20.60;;;8.20;99.90;;;;;;5069579;28;20101;-74
2021/03/26 05:47:57;;;;;;;39.03;18.92;;;8.20;99.90;;;;;;5068988;28;20478;-72
2021/03/26 05:50:37;;;;;;;38.13;20.17;;;8.20;99.90;;;;;;5069229;28;20028;-72
2021/03/26 05:53:23;;;;;;;38.53;18.35;;;8.20;99.90;;;;;;5065452;28;20384;-71
2021/03/26 05:55:56;;;;;;;45.33;19.42;;;8.20;99.90;;;;;;5067512;28;20032;-73
2021/03/26 05:58:34;;;;;;;38.17;18.58;;;8.20;99.90;;;;;;5067641;28;20052;-73
2021/03/26 06:01:19;;;;;;;38.78;19.48;;;8.20;99.90;;;;;;5064821;28;20136;-74
2021/03/26 06:04:11;;;;;;;40.33;19.73;;;8.20;99.90;;;;;;5059888;28;20029;-74
2021/03/26 06:07:02;;;;;;;35.67;18.33;;;8.20;99.90;;;;;;5066486;28;20021;-74
2021/03/26 06:09:56;;;;;;;32.00;17.85;;;8.20;99.90;;;;;;5066787;28;20074;-73
2021/03/26 06:12:36;;;;;;;35.13;19.23;;;8.30;99.90;;;;;;5062563;28;20021;-73
2021/03/26 06:15:32;;;;;;;36.25;19.42;;;8.20;99.90;;;;;;5066181;28;20511;-73
2021/03/26 06:18:10;;;;;;;35.40;19.17;;;8.20;99.90;;;;;;5065113;28;20574;-73
2021/03/26 06:21:25;;;;;;;38.28;18.60;;;8.20;99.90;;;;;;5062699;28;20055;-75
2021/03/26 06:23:51;;;;;;;37.55;19.67;;;8.20;99.90;;;;;;5064422;28;20020;-73
2021/03/26 06:26:39;;;;;;;33.05;18.23;;;8.20;99.90;;;;;;5070148;28;20016;-78
2021/03/26 06:29:34;;;;;;;37.67;18.63;;;8.30;99.90;;;;;;5070392;28;20533;-73
2021/03/26 06:32:37;;;;;;;33.33;18.25;;;8.20;99.90;;;;;;5065117;28;20037;-74
2021/03/26 06:35:37;;;;;;;35.97;18.70;;;8.10;99.90;;;;;;5068059;28;20044;-76
2021/03/26 06:38:55;;;;;;;35.28;17.67;;;8.10;99.90;;;;;;5062657;28;20039;-73
2021/03/26 06:41:35;;;;;;;34.05;18.45;;;8.10;99.90;;;;;;5068292;28;20028;-73
2021/03/26 06:44:23;;;;;;;35.85;18.60;;;8.20;99.90;;;;;;5066291;28;20020;-74
2021/03/26 06:47:11;;;;;;;38.15;18.70;;;8.20;99.90;;;;;;5068734;28;20024;-73
2021/03/26 06:49:54;;;;;;;36.83;19.08;;;8.20;99.90;;;;;;5067870;28;20044;-75
2021/03/26 06:52:26;;;;;;;34.35;17.58;;;8.20;99.90;;;;;;5069190;28;20025;-75
2021/03/26 06:55:26;;;;;;;31.55;18.30;;;8.20;99.90;;;;;;5067883;28;20016;-73
2021/03/26 06:58:12;;;;;;;36.70;18.67;;;8.30;99.90;;;;;;5046356;28;20044;-74
2021/03/26 07:00:44;;;;;;;30.95;17.17;;;8.30;99.90;;;;;;5080265;28;20082;-77
2021/03/26 07:03:33;;;;;;;38.72;18.55;;;8.40;99.90;;;;;;5077765;28;20074;-77
2021/03/26 07:06:22;;;;;;;37.60;17.98;;;8.40;99.90;;;;;;5073773;28;20100;-77
2021/03/26 07:08:59;;;;;;;36.85;18.58;;;8.50;99.90;;;;;;5065502;28;20060;-73
2021/03/26 07:11:44;;;;;;;38.00;18.85;;;8.60;99.90;;;;;;5068227;28;20081;-74
2021/03/26 07:14:38;;;;;;;36.83;18.63;;;8.60;99.90;;;;;;5058513;28;20495;-76
2021/03/26 07:17:41;;;;;;;34.10;18.33;;;8.50;99.90;;;;;;5064265;28;20535;-77
2021/03/26 07:20:16;;;;;;;42.97;19.42;;;8.60;99.90;;;;;;5065211;28;20017;-76
2021/03/26 07:23:14;;;;;;;40.13;18.33;;;8.60;99.90;;;;;;5061719;28;20554;-74
2021/03/26 07:26:01;;;;;;;33.95;17.75;;;8.70;99.90;;;;;;5057766;28;20653;-74
2021/03/26 07:28:35;;;;;;;40.92;17.90;;;8.80;99.90;;;;;;5067589;28;20021;-73
2021/03/26 07:31:46;;;;;;;35.67;18.45;;;8.90;99.90;;;;;;5062479;28;20398;-75
2021/03/26 07:34:30;;;;;;;40.20;19.58;;;9.00;99.90;;;;;;5061217;28;20025;-73
2021/03/26 07:37:10;;;;;;;36.53;18.73;;;9.10;99.90;;;;;;5074174;28;20110;-73
2021/03/26 07:39:45;;;;;;;44.55;19.35;;;9.10;99.90;;;;;;5073532;28;20020;-74
2021/03/26 07:42:41;;;;;;;33.60;18.63;;;9.20;99.90;;;;;;5074013;28;20024;-74
2021/03/26 07:45:50;;;;;;;31.15;18.17;;;9.30;99.90;;;;;;5075157;28;20059;-72
2021/03/26 07:48:54;;;;;;;38.65;17.77;;;9.30;99.90;;;;;;5065381;28;20097;-75
2021/03/26 07:51:49;;;;;;;36.45;17.95;;;9.40;99.90;;;;;;5068827;28;20029;-75
2021/03/26 07:54:49;;;;;;;32.00;16.58;;;9.50;99.90;;;;;;5065892;28;20049;-74
2021/03/26 07:57:40;;;;;;;33.60;18.02;;;9.50;99.90;;;;;;5073864;28;20036;-73
2021/03/26 08:00:17;;;;;;;31.02;15.65;;;9.60;99.90;;;;;;5062656;28;20017;-75
2021/03/26 08:03:01;;;;;;;36.53;17.20;;;9.70;99.90;;;;;;5074525;28;20024;-74
2021/03/26 08:05:54;;;;;;;37.95;17.90;;;9.90;99.90;;;;;;5084430;28;20029;-75
2021/03/26 08:08:45;;;;;;;33.40;17.00;;;9.90;99.90;;;;;;5075690;28;20419;-76
2021/03/26 08:11:14;;;;;;;32.65;16.35;;;10.00;99.90;;;;;;5077598;28;20033;-74
2021/03/26 08:13:39;;;;;;;34.17;16.77;;;10.10;99.90;;;;;;5077153;28;20024;-73
2021/03/26 08:16:29;;;;;;;31.08;16.98;;;10.20;99.90;;;;;;5082037;28;20032;-76
2021/03/26 08:19:32;;;;;;;34.50;16.10;;;10.30;99.90;;;;;;5064924;28;20029;-75
2021/03/26 08:22:14;;;;;;;37.97;17.77;;;10.40;99.90;;;;;;5057867;28;20025;-75
2021/03/26 08:25:05;;;;;;;33.22;15.05;;;10.50;99.90;;;;;;5070123;28;20059;-73
2021/03/26 08:28:05;;;;;;;30.00;15.10;;;10.60;99.90;;;;;;5060535;28;20031;-74
2021/03/26 08:30:40;;;;;;;34.72;16.05;;;10.80;99.90;;;;;;5072000;28;20013;-72
2021/03/26 08:33:37;;;;;;;29.75;14.75;;;11.10;99.90;;;;;;5074427;28;20025;-75
2021/03/26 08:36:22;;;;;;;24.88;14.30;;;11.20;99.90;;;;;;5073958;28;20035;-75
2021/03/26 08:38:52;;;;;;;26.00;14.02;;;11.40;99.90;;;;;;5073152;28;20404;-71
2021/03/26 08:41:24;;;;;;;26.08;12.98;;;11.30;99.90;;;;;;5070627;28;20056;-74
2021/03/26 08:43:52;;;;;;;29.17;14.77;;;11.40;99.90;;;;;;5072988;28;20023;-75
2021/03/26 08:46:27;;;;;;;32.47;15.85;;;11.80;99.90;;;;;;5075250;28;20055;-72
2021/03/26 08:49:17;;;;;;;27.90;14.00;;;12.10;99.90;;;;;;5074790;28;20051;-74
2021/03/26 08:51:56;;;;;;;27.15;13.48;;;12.40;99.90;;;;;;5073770;28;20021;-74
2021/03/26 08:54:49;;;;;;;27.10;12.77;;;12.60;99.90;;;;;;5073387;28;20021;-72
2021/03/26 08:57:34;;;;;;;;;;;12.80;99.90;;;;;;5070536;28;20429;-72
2021/03/26 09:00:08;;;;;;;21.52;11.85;;;13.30;99.90;;;;;;5058750;28;20411;-73
2021/03/26 09:03:09;;;;;;;22.70;11.90;;;13.50;99.90;;;;;;5069688;28;20025;-72
2021/03/26 09:05:40;;;;;;;24.95;10.85;;;13.50;99.90;;;;;;5071527;28;20076;-71
2021/03/26 09:08:55;;;;;;;30.27;12.35;;;13.40;99.90;;;;;;5071253;28;20486;-75
2021/03/26 09:11:49;;;;;;;25.55;12.07;;;13.30;99.90;;;;;;5044740;28;20462;-74
2021/03/26 09:14:46;;;;;;;27.38;11.32;;;13.10;99.90;;;;;;5072820;28;20034;-75
2021/03/26 09:17:34;;;;;;;17.77;10.13;;;12.90;99.90;;;;;;5071494;28;20029;-72
2021/03/26 09:20:08;;;;;;;23.42;10.93;;;13.30;99.90;;;;;;5069968;28;20209;-73
2021/03/26 09:22:50;;;;;;;21.35;9.23;;;14.10;99.90;;;;;;5062201;28;20025;-75
2021/03/26 09:25:37;;;;;;;21.13;8.98;;;14.30;99.90;;;;;;5068829;28;20072;-73
2021/03/26 09:28:13;;;;;;;23.65;10.48;;;13.80;99.90;;;;;;5071621;28;20052;-74
2021/03/26 09:30:52;;;;;;;18.08;9.85;;;14.00;99.90;;;;;;5056266;28;20024;-72
2021/03/26 09:33:18;;;;;;;21.20;10.43;;;14.20;99.90;;;;;;5071380;28;20032;-73
2021/03/26 09:35:56;;;;;;;22.65;11.18;;;13.90;99.90;;;;;;5070704;28;20430;-74
2021/03/26 09:38:27;;;;;;;22.77;9.35;;;13.70;99.90;;;;;;5070686;28;20452;-74
2021/03/26 09:41:05;;;;;;;20.92;9.95;;;13.80;99.90;;;;;;5070743;28;20024;-74
2021/03/26 09:43:50;;;;;;;19.95;9.68;;;13.60;99.90;;;;;;5070770;28;20032;-73
2021/03/26 09:46:27;;;;;;;16.35;8.23;;;13.50;99.90;;;;;;5052060;28;20017;-74
2021/03/26 09:49:30;;;;;;;15.98;8.65;;;13.70;99.90;;;;;;5056757;28;20024;-75
2021/03/26 09:52:20;;;;;;;13.85;7.72;;;13.60;99.90;;;;;;5075298;28;20036;-75
2021/03/26 09:54:49;;;;;;;20.38;9.20;;;13.60;99.90;;;;;;5072818;28;20143;-73
2021/03/26 09:57:26;;;;;;;19.25;8.65;;;14.10;99.90;;;;;;5074557;28;20031;-71
2021/03/26 10:00:17;;;;;;;20.63;9.27;;;14.30;99.90;;;;;;5072619;28;20025;-74
2021/03/26 10:03:10;;;;;;;16.70;8.70;;;14.20;99.90;;;;;;5069855;28;20028;-74
2021/03/26 10:06:04;;;;;;;19.85;9.45;;;14.00;99.90;;;;;;5062667;28;20085;-74
2021/03/26 10:12:03;;;;;;;20.67;7.40;;;14.00;99.90;;;;;;5072361;28;20040;-74
2021/03/26 10:14:33;;;;;;;11.93;6.05;;;14.20;99.90;;;;;;5071146;28;20086;-74
2021/03/26 10:17:27;;;;;;;13.38;6.90;;;14.40;99.90;;;;;;5070531;28;20020;-72
2021/03/26 10:19:55;;;;;;;15.43;6.63;;;14.20;99.90;;;;;;5065642;28;20036;-77
2021/03/26 10:22:25;;;;;;;14.55;5.97;;;14.30;98.90;;;;;;5071448;28;20333;-76
2021/03/26 10:25:05;;;;;;;11.80;5.20;;;14.00;99.00;;;;;;5069710;28;20363;-74
2021/03/26 10:27:36;;;;;;;8.35;4.30;;;14.00;99.20;;;;;;5057176;28;20402;-75
2021/03/26 10:30:04;;;;;;;13.68;4.13;;;14.10;98.30;;;;;;5056519;28;20115;-74
2021/03/26 10:32:33;;;;;;;7.13;3.75;;;14.10;97.80;;;;;;5070167;28;20016;-75
2021/03/26 10:35:11;;;;;;;11.70;3.72;;;13.80;97.30;;;;;;5070992;28;20023;-72
2021/03/26 10:37:45;;;;;;;16.23;3.55;;;13.90;96.90;;;;;;5063540;28;20021;-73
2021/03/26 10:40:23;;;;;;;9.57;3.67;;;13.60;98.00;;;;;;5063658;28;20504;-74
2021/03/26 10:43:17;;;;;;;9.73;3.63;;;13.70;97.60;;;;;;5050478;28;20445;-73
2021/03/26 10:46:06;;;;;;;11.73;3.67;;;13.90;97.50;;;;;;5068113;28;20045;-74
2021/03/26 10:48:59;;;;;;;6.93;3.05;;;13.80;96.60;;;;;;5070924;28;20020;-74
2021/03/26 10:51:40;;;;;;;7.97;3.50;;;13.90;96.60;;;;;;5063621;28;20665;-74
2021/03/26 10:54:12;;;;;;;11.30;3.70;;;14.20;96.80;;;;;;5059893;28;20025;-72
2021/03/26 10:56:56;;;;;;;10.45;3.85;;;14.20;95.80;;;;;;5069408;28;20043;-75
2021/03/26 10:59:39;;;;;;;7.95;3.22;;;14.20;95.50;;;;;;5069176;28;20035;-73
2021/03/26 11:02:42;;;;;;;6.13;2.97;;;14.50;95.90;;;;;;5069034;28;20487;-73
2021/03/26 11:05:24;;;;;;;6.32;3.08;;;14.90;93.10;;;;;;5065119;28;20430;-73
2021/03/26 11:08:01;;;;;;;6.97;2.63;;;14.50;93.80;;;;;;5072756;28;20044;-72
2021/03/26 11:10:41;;;;;;;5.35;2.65;;;14.60;94.10;;;;;;5074042;28;20154;-71
2021/03/26 11:13:24;;;;;;;9.07;3.08;;;14.70;93.70;;;;;;5072451;28;20216;-72
2021/03/26 11:15:56;;;;;;;10.55;2.58;;;14.70;93.30;;;;;;5072088;28;20029;-73
2021/03/26 11:18:30;;;;;;;12.13;3.10;;;14.30;92.80;;;;;;5073288;28;20032;-74
2021/03/26 11:21:06;;;;;;;5.85;2.75;;;14.00;93.60;;;;;;5074494;28;20036;-73
2021/03/26 11:23:37;;;;;;;10.40;3.38;;;14.00;93.60;;;;;;5070562;28;20025;-75
2021/03/26 11:26:10;;;;;;;6.47;2.83;;;14.10;93.80;;;;;;5074414;28;20066;-73
2021/03/26 11:28:43;;;;;;;7.20;3.45;;;14.00;94.20;;;;;;5076863;28;20028;-74
2021/03/26 11:31:24;;;;;;;7.10;3.75;;;14.60;93.60;;;;;;5083785;28;20025;-73
2021/03/26 11:34:05;;;;;;;13.10;4.55;;;15.00;92.30;;;;;;5081938;28;20036;-75
2021/03/26 11:36:49;;;;;;;10.57;3.85;;;15.10;92.50;;;;;;5072083;28;20039;-74
2021/03/26 11:39:34;;;;;;;9.10;3.50;;;15.10;91.80;;;;;;5070597;28;20020;-73
2021/03/26 11:42:21;;;;;;;8.02;4.03;;;15.10;92.40;;;;;;5071835;28;20025;-76
2021/03/26 11:44:55;;;;;;;8.63;3.25;;;15.70;91.40;;;;;;5060186;28;20173;-72
2021/03/26 11:47:27;;;;;;;6.18;3.47;;;16.30;90.10;;;;;;5072180;28;20088;-73
2021/03/26 11:50:14;;;;;;;9.13;3.88;;;15.80;89.00;;;;;;5071087;28;20069;-73
2021/03/26 11:52:45;;;;;;;14.55;3.17;;;15.70;90.10;;;;;;5068194;28;20029;-75
2021/03/26 11:55:28;;;;;;;5.70;2.67;;;16.30;89.20;;;;;;5065673;28;20028;-76
2021/03/26 11:58:12;;;;;;;6.18;2.30;;;16.40;85.80;;;;;;5058359;28;20032;-75
2021/03/26 12:00:40;;;;;;;12.27;2.90;;;16.40;84.20;;;;;;5076405;28;20087;-75
2021/03/26 12:03:17;;;;;;;5.40;2.35;;;16.20;84.40;;;;;;5073362;28;20028;-74
2021/03/26 12:06:30;;;;;;;7.03;2.78;;;15.70;86.90;;;;;;5074203;28;20027;-73
2021/03/26 12:09:00;;;;;;;11.48;2.58;;;15.80;85.60;;;;;;5059517;28;20037;-73
2021/03/26 12:11:35;;;;;;;12.20;3.70;;;16.20;84.60;;;;;;5068063;28;20020;-74
2021/03/26 12:14:06;;;;;;;9.07;3.00;;;15.80;84.80;;;;;;5063458;28;20028;-73
2021/03/26 12:16:39;;;;;;;8.45;2.97;;;15.30;86.70;;;;;;5069984;28;20289;-75
2021/03/26 12:19:14;;;;;;;8.25;3.17;;;14.90;87.60;;;;;;5070004;28;20365;-74
2021/03/26 12:22:00;;;;;;;6.13;2.70;;;14.70;88.50;;;;;;5069798;28;20033;-72
2021/03/26 12:24:56;;;;;;;5.70;2.30;;;14.90;90.20;;;;;;5069544;28;20075;-72
2021/03/26 12:27:28;;;;;;;7.07;3.13;;;15.20;89.10;;;;;;5058099;28;20023;-73
2021/03/26 12:30:12;;;;;;;8.75;2.35;;;15.00;89.10;;;;;;5071209;28;20100;-72
2021/03/26 12:32:56;;;;;;;11.25;3.13;;;14.70;89.60;;;;;;5071283;28;20066;-74
2021/03/26 12:35:30;;;;;;;6.88;2.47;;;14.50;90.40;;;;;;5069587;28;20028;-72
2021/03/26 12:38:22;;;;;;;5.22;2.30;;;14.60;90.30;;;;;;5071027;28;20502;-73
2021/03/26 12:40:55;;;;;;;3.97;2.15;;;14.50;90.00;;;;;;5070283;28;20023;-72
2021/03/26 12:43:30;;;;;;;12.20;3.05;;;14.20;90.50;;;;;;5070110;28;20021;-72
2021/03/26 12:46:10;;;;;;;5.93;2.35;;;14.10;90.30;;;;;;5055901;28;20056;-74
2021/03/26 12:48:38;;;;;;;12.73;3.00;;;14.00;90.50;;;;;;5070671;28;20042;-73
2021/03/26 12:51:21;;;;;;;9.40;3.03;;;13.90;90.90;;;;;;5068848;28;20064;-74
2021/03/26 12:53:54;;;;;;;;;;;13.90;91.10;;;;;;5071598;28;20023;-74
2021/03/26 12:56:35;;;;;;;6.28;2.28;;;13.80;91.10;;;;;;5065212;28;19912;-74
2021/03/26 12:59:22;;;;;;;7.00;3.03;;;13.70;91.70;;;;;;5064320;28;20090;-74
2021/03/26 13:01:51;;;;;;;10.73;2.40;;;13.70;91.40;;;;;;5071479;28;20094;-76
2021/03/26 13:04:35;;;;;;;6.43;2.53;;;13.60;91.90;;;;;;5069204;28;20013;-74
2021/03/26 13:07:10;;;;;;;7.13;2.78;;;13.40;92.40;;;;;;5070254;28;20047;-75
2021/03/26 13:09:57;;;;;;;8.70;2.78;;;13.30;92.70;;;;;;5066450;28;20036;-75
2021/03/26 13:12:31;;;;;;;5.60;2.60;;;13.40;93.20;;;;;;5061130;28;20081;-73
2021/03/26 13:15:12;;;;;;;6.78;3.28;;;13.40;93.20;;;;;;5069435;28;20263;-75
2021/03/26 13:17:38;;;;;;;5.18;2.22;;;13.30;93.00;;;;;;5071504;28;20096;-74
2021/03/26 13:20:15;;;;;;;6.57;2.17;;;13.30;93.10;;;;;;5074465;28;20484;-75
2021/03/26 13:22:52;;;;;;;8.10;2.47;;;13.30;93.40;;;;;;5062993;28;20245;-75
2021/03/26 13:25:26;;;;;;;6.75;2.75;;;13.20;93.50;;;;;;5074298;28;20036;-73
2021/03/26 13:27:55;;;;;;;10.80;2.72;;;13.40;93.30;;;;;;5070483;28;20024;-75
2021/03/26 13:30:28;;;;;;;11.20;2.30;;;13.40;93.00;;;;;;5068026;28;20520;-75
2021/03/26 13:32:57;;;;;;;3.45;2.10;;;13.50;93.20;;;;;;5075000;28;20075;-77
2021/03/26 13:35:47;;;;;;;4.13;2.08;;;13.30;93.30;;;;;;5085555;28;20028;-74
2021/03/26 13:38:36;;;;;;;10.25;2.88;;;13.20;93.30;;;;;;5086140;28;20051;-76
2021/03/26 13:41:05;;;;;;;7.70;2.78;;;13.20;93.30;;;;;;5061495;28;20021;-73
2021/03/26 13:43:38;;;;;;;7.72;2.40;;;13.20;93.70;;;;;;5070550;28;20090;-73
2021/03/26 13:46:07;;;;;;;7.47;2.70;;;13.30;93.50;;;;;;5070544;28;20031;-75
2021/03/26 13:48:42;;;;;;;8.80;2.72;;;13.30;93.30;;;;;;5069827;28;20024;-74